• Join FlightAware (Why Join?)
  • Login
  • US Flag 
06:45AM EDT


 

Airport Tracker/Info


-or-


 

Live Flight TrackerFlight Track Log ✈ AWI3847 ✈ 09-May-2013 ✈ KPHL - KBWI

Flight Track Log - Related Links

Times and Time Zones

All times are in EDT time to prevent confusion due to time zone crossing. See the AWI3847 flight status page for this flight to view local times or setup timezone preferences in your user account.

Time Position Orientation Groundspeed Altitude Reporting Facility
EDT Latitude Longitude Course Direction KTS MPH feet Rate Location/Type
06:56PM 39.8667 -75.2833 270° West 157 181 1,000  Level Philadelphia TRACON
06:57PM 39.8333 -75.3167 218° Southwest 186 214 2,700 2,400 Climbing Philadelphia TRACON
06:58PM 39.8000 -75.3667 229° Southwest 232 267 5,400 2,880 Climbing Philadelphia TRACON
06:59PM 39.7667 -75.4500 243° Southwest 271 312 8,500 2,160 Climbing Philadelphia TRACON
07:00PM 39.6536 -75.7567 264° West  Level FlightAware Approximate
07:00PM 39.7167 -75.5500 237° Southwest 312 359 10,000  Level Philadelphia TRACON
07:01PM 39.6333 -75.9074 270° West  Level FlightAware Approximate
07:01PM 39.6833 -75.6333 243° Southwest 301 346 10,000  Level Philadelphia TRACON
07:02PM 39.6667 -75.7500 260° West 289 333 10,000  Level Philadelphia TRACON
07:04PM 39.6333 -75.9500 258° West 274 315 10,000  Level Potomac TRACON
07:05PM 39.6333 -76.0667 270° West 268 308 10,000 -360 Level Potomac TRACON
07:06PM 39.6333 -76.1500 270° West 258 297 9,300 -1,200 Descending Potomac TRACON
07:07PM 39.6000 -76.2500 247° West 271 312 7,700 -1,560 Descending Potomac TRACON
07:08PM 39.5667 -76.3167 237° Southwest 263 303 6,200 -1,320 Descending Potomac TRACON
07:09PM 39.5000 -76.3833 218° Southwest 264 304 5,000 -780 Descending Potomac TRACON
07:10PM 39.4333 -76.4000 191° South 260 299 4,700 -900 Descending Potomac TRACON
07:11PM 39.3667 -76.4167 191° South 259 298 3,400 -900 Descending Potomac TRACON
07:12PM 39.3000 -76.4667 210° Southwest 244 281 3,000 -300 Descending Potomac TRACON
07:13PM 39.2333 -76.5000 201° Southwest 256 295 2,800 -480 Descending Potomac TRACON
07:14PM 39.1667 -76.5167 191° South 229 264 2,000 -420 Descending Potomac TRACON
07:15PM 39.1167 -76.5167 180° South 178 205 2,000  Level Potomac TRACON